sensor_id;sensor_type;location;lat;lon;timestamp;temperature;humidity
69204;DHT22;56317;27.658;85.326;2024-03-23T00:55:27;12.30;99.90
69204;DHT22;56317;27.658;85.326;2024-03-23T00:57:54;12.70;99.90
69204;DHT22;56317;27.658;85.326;2024-03-23T01:00:21;12.70;99.90
69204;DHT22;56317;27.658;85.326;2024-03-23T01:02:48;12.70;99.90
69204;DHT22;56317;27.658;85.326;2024-03-23T01:05:15;12.70;99.90
69204;DHT22;56317;27.658;85.326;2024-03-23T01:07:43;12.80;99.90
69204;DHT22;56317;27.658;85.326;2024-03-23T01:10:10;12.80;99.90
69204;DHT22;56317;27.658;85.326;2024-03-23T01:12:37;12.80;99.90
69204;DHT22;56317;27.658;85.326;2024-03-23T01:15:04;12.70;99.90
69204;DHT22;56317;27.658;85.326;2024-03-23T01:17:31;12.70;99.90
69204;DHT22;56317;27.658;85.326;2024-03-23T01:19:58;12.90;99.90
69204;DHT22;56317;27.658;85.326;2024-03-23T01:22:26;13.00;99.90
69204;DHT22;56317;27.658;85.326;2024-03-23T01:24:53;13.30;99.90
69204;DHT22;56317;27.658;85.326;2024-03-23T01:27:20;13.40;96.20
69204;DHT22;56317;27.658;85.326;2024-03-23T01:29:47;13.50;1.00
69204;DHT22;56317;27.658;85.326;2024-03-23T01:32:14;13.70;6.70
69204;DHT22;56317;27.658;85.326;2024-03-23T01:34:41;13.90;1.00
69204;DHT22;56317;27.658;85.326;2024-03-23T01:37:08;14.30;1.00
69204;DHT22;56317;27.658;85.326;2024-03-23T01:39:35;14.50;99.90
69204;DHT22;56317;27.658;85.326;2024-03-23T01:42:03;14.80;1.00
69204;DHT22;56317;27.658;85.326;2024-03-23T01:44:30;15.10;62.10
69204;DHT22;56317;27.658;85.326;2024-03-23T01:46:57;15.00;1.00
69204;DHT22;56317;27.658;85.326;2024-03-23T01:49:25;15.10;1.00
69204;DHT22;56317;27.658;85.326;2024-03-23T01:51:52;15.00;7.90
69204;DHT22;56317;27.658;85.326;2024-03-23T01:54:19;14.90;1.00
69204;DHT22;56317;27.658;85.326;2024-03-23T01:56:47;14.80;1.00
69204;DHT22;56317;27.658;85.326;2024-03-23T01:59:14;14.60;99.90
69204;DHT22;56317;27.658;85.326;2024-03-23T02:01:41;14.60;1.00
69204;DHT22;56317;27.658;85.326;2024-03-23T02:04:08;14.60;94.00
69204;DHT22;56317;27.658;85.326;2024-03-23T02:06:36;14.30;1.00
69204;DHT22;56317;27.658;85.326;2024-03-23T02:09:03;14.20;99.90
69204;DHT22;56317;27.658;85.326;2024-03-23T02:11:30;14.10;29.10
69204;DHT22;56317;27.658;85.326;2024-03-23T02:13:57;14.00;99.90
69204;DHT22;56317;27.658;85.326;2024-03-23T02:16:24;13.90;99.90
69204;DHT22;56317;27.658;85.326;2024-03-23T02:18:51;13.90;99.90
69204;DHT22;56317;27.658;85.326;2024-03-23T02:21:18;13.80;99.90
69204;DHT22;56317;27.658;85.326;2024-03-23T02:23:45;13.80;1.00
69204;DHT22;56317;27.658;85.326;2024-03-23T02:26:12;13.70;1.00
69204;DHT22;56317;27.658;85.326;2024-03-23T02:28:41;13.70;1.00
69204;DHT22;56317;27.658;85.326;2024-03-23T02:31:08;13.80;1.00
69204;DHT22;56317;27.658;85.326;2024-03-23T02:33:35;13.90;1.00
69204;DHT22;56317;27.658;85.326;2024-03-23T02:36:04;14.00;1.00
69204;DHT22;56317;27.658;85.326;2024-03-23T02:38:31;14.00;1.00
69204;DHT22;56317;27.658;85.326;2024-03-23T02:41:04;14.10;1.00
69204;DHT22;56317;27.658;85.326;2024-03-23T02:43:32;14.20;99.90
69204;DHT22;56317;27.658;85.326;2024-03-23T02:45:59;14.30;1.00
69204;DHT22;56317;27.658;85.326;2024-03-23T02:48:27;14.20;99.90
69204;DHT22;56317;27.658;85.326;2024-03-23T02:50:54;14.30;99.90
69204;DHT22;56317;27.658;85.326;2024-03-23T02:53:21;14.10;99.90
69204;DHT22;56317;27.658;85.326;2024-03-23T02:55:48;13.90;99.90
69204;DHT22;56317;27.658;85.326;2024-03-23T02:58:15;13.90;1.00
69204;DHT22;56317;27.658;85.326;2024-03-23T03:00:43;14.00;1.00
69204;DHT22;56317;27.658;85.326;2024-03-23T03:03:10;14.40;1.00
69204;DHT22;56317;27.658;85.326;2024-03-23T03:05:37;14.50;99.90
69204;DHT22;56317;27.658;85.326;2024-03-23T03:08:04;14.60;99.90
69204;DHT22;56317;27.658;85.326;2024-03-23T03:10:31;14.70;4.90
69204;DHT22;56317;27.658;85.326;2024-03-23T03:13:01;14.70;99.90
69204;DHT22;56317;27.658;85.326;2024-03-23T03:15:29;14.90;1.00
69204;DHT22;56317;27.658;85.326;2024-03-23T03:17:56;14.80;99.90
69204;DHT22;56317;27.658;85.326;2024-03-23T03:20:23;15.00;99.90
69204;DHT22;56317;27.658;85.326;2024-03-23T03:22:50;14.90;56.80
69204;DHT22;56317;27.658;85.326;2024-03-23T03:25:19;15.10;1.00
69204;DHT22;56317;27.658;85.326;2024-03-23T03:27:46;15.30;1.00
69204;DHT22;56317;27.658;85.326;2024-03-23T03:30:14;15.40;1.00
69204;DHT22;56317;27.658;85.326;2024-03-23T03:32:41;15.90;99.90
69204;DHT22;56317;27.658;85.326;2024-03-23T03:35:08;16.20;99.90
69204;DHT22;56317;27.658;85.326;2024-03-23T03:37:35;16.50;99.90
69204;DHT22;56317;27.658;85.326;2024-03-23T03:40:02;16.80;99.90
69204;DHT22;56317;27.658;85.326;2024-03-23T03:42:29;17.20;1.00
69204;DHT22;56317;27.658;85.326;2024-03-23T03:44:57;17.80;99.90
69204;DHT22;56317;27.658;85.326;2024-03-23T03:47:24;18.60;99.90
69204;DHT22;56317;27.658;85.326;2024-03-23T03:49:51;18.80;1.00
69204;DHT22;56317;27.658;85.326;2024-03-23T03:52:18;18.80;1.00
69204;DHT22;56317;27.658;85.326;2024-03-23T03:54:45;18.80;1.00
69204;DHT22;56317;27.658;85.326;2024-03-23T03:57:13;19.40;1.00
69204;DHT22;56317;27.658;85.326;2024-03-23T03:59:41;20.10;99.90
69204;DHT22;56317;27.658;85.326;2024-03-23T04:02:08;21.30;99.90
69204;DHT22;56317;27.658;85.326;2024-03-23T04:04:35;21.90;66.50
69204;DHT22;56317;27.658;85.326;2024-03-23T04:07:02;21.30;1.00
69204;DHT22;56317;27.658;85.326;2024-03-23T04:09:31;21.50;1.00
69204;DHT22;56317;27.658;85.326;2024-03-23T04:11:58;21.70;1.00
69204;DHT22;56317;27.658;85.326;2024-03-23T04:14:25;21.60;1.00
69204;DHT22;56317;27.658;85.326;2024-03-23T04:16:52;21.60;1.00
69204;DHT22;56317;27.658;85.326;2024-03-23T04:19:19;21.40;1.00
69204;DHT22;56317;27.658;85.326;2024-03-23T04:21:47;21.10;1.00
69204;DHT22;56317;27.658;85.326;2024-03-23T04:24:14;21.00;1.00
69204;DHT22;56317;27.658;85.326;2024-03-23T04:26:44;20.40;1.00
69204;DHT22;56317;27.658;85.326;2024-03-23T04:29:12;20.10;1.00
69204;DHT22;56317;27.658;85.326;2024-03-23T04:31:39;20.40;1.00
69204;DHT22;56317;27.658;85.326;2024-03-23T04:34:06;20.80;1.00
69204;DHT22;56317;27.658;85.326;2024-03-23T04:36:33;21.20;1.00
69204;DHT22;56317;27.658;85.326;2024-03-23T04:39:01;21.70;1.00
69204;DHT22;56317;27.658;85.326;2024-03-23T04:41:28;22.00;1.00
69204;DHT22;56317;27.658;85.326;2024-03-23T04:43:56;21.90;1.00
69204;DHT22;56317;27.658;85.326;2024-03-23T04:46:23;22.10;1.00
69204;DHT22;56317;27.658;85.326;2024-03-23T04:48:50;21.90;1.00
69204;DHT22;56317;27.658;85.326;2024-03-23T04:51:23;21.40;1.00
69204;DHT22;56317;27.658;85.326;2024-03-23T04:53:51;19.90;1.00
69204;DHT22;56317;27.658;85.326;2024-03-23T04:56:18;19.50;1.00
69204;DHT22;56317;27.658;85.326;2024-03-23T04:58:45;19.70;1.00
69204;DHT22;56317;27.658;85.326;2024-03-23T05:01:13;19.70;1.00
69204;DHT22;56317;27.658;85.326;2024-03-23T05:03:40;19.60;1.00
69204;DHT22;56317;27.658;85.326;2024-03-23T05:06:07;19.30;1.00
69204;DHT22;56317;27.658;85.326;2024-03-23T05:08:34;20.00;1.00
69204;DHT22;56317;27.658;85.326;2024-03-23T05:11:01;20.70;1.00
69204;DHT22;56317;27.658;85.326;2024-03-23T05:13:29;20.70;1.00
69204;DHT22;56317;27.658;85.326;2024-03-23T05:15:56;20.50;1.00
69204;DHT22;56317;27.658;85.326;2024-03-23T05:18:23;20.60;1.00
69204;DHT22;56317;27.658;85.326;2024-03-23T05:20:56;20.10;1.00
69204;DHT22;56317;27.658;85.326;2024-03-23T05:23:24;20.00;1.00
69204;DHT22;56317;27.658;85.326;2024-03-23T05:25:52;20.50;1.00
69204;DHT22;56317;27.658;85.326;2024-03-23T05:28:19;21.20;1.00
69204;DHT22;56317;27.658;85.326;2024-03-23T05:30:56;20.50;1.00
69204;DHT22;56317;27.658;85.326;2024-03-23T05:33:23;20.40;1.00
69204;DHT22;56317;27.658;85.326;2024-03-23T05:36:01;20.00;1.00
69204;DHT22;56317;27.658;85.326;2024-03-23T05:38:30;19.80;1.00
69204;DHT22;56317;27.658;85.326;2024-03-23T05:41:00;19.30;1.00
69204;DHT22;56317;27.658;85.326;2024-03-23T05:43:28;19.30;1.00
69204;DHT22;56317;27.658;85.326;2024-03-23T05:45:59;19.10;1.00
69204;DHT22;56317;27.658;85.326;2024-03-23T05:48:27;19.10;1.00
69204;DHT22;56317;27.658;85.326;2024-03-23T05:50:54;19.40;1.00
69204;DHT22;56317;27.658;85.326;2024-03-23T05:53:21;19.20;1.00
69204;DHT22;56317;27.658;85.326;2024-03-23T05:55:49;19.10;1.00
69204;DHT22;56317;27.658;85.326;2024-03-23T05:58:17;19.20;1.00
69204;DHT22;56317;27.658;85.326;2024-03-23T06:00:45;19.30;1.00
69204;DHT22;56317;27.658;85.326;2024-03-23T06:03:12;19.70;1.00
69204;DHT22;56317;27.658;85.326;2024-03-23T06:05:39;19.80;1.00
69204;DHT22;56317;27.658;85.326;2024-03-23T06:08:06;19.80;1.00
69204;DHT22;56317;27.658;85.326;2024-03-23T06:10:36;19.80;1.00
69204;DHT22;56317;27.658;85.326;2024-03-23T06:13:03;20.30;1.00
69204;DHT22;56317;27.658;85.326;2024-03-23T06:15:30;20.50;1.00
69204;DHT22;56317;27.658;85.326;2024-03-23T06:17:58;20.70;1.00
69204;DHT22;56317;27.658;85.326;2024-03-23T06:20:25;20.60;1.00
69204;DHT22;56317;27.658;85.326;2024-03-23T06:22:52;20.70;1.00
69204;DHT22;56317;27.658;85.326;2024-03-23T06:25:20;21.10;1.00
69204;DHT22;56317;27.658;85.326;2024-03-23T06:27:47;21.20;1.00
69204;DHT22;56317;27.658;85.326;2024-03-23T06:30:14;21.90;1.00
69204;DHT22;56317;27.658;85.326;2024-03-23T06:32:42;21.90;1.00
69204;DHT22;56317;27.658;85.326;2024-03-23T06:35:09;24.10;1.00
69204;DHT22;56317;27.658;85.326;2024-03-23T06:37:37;33.50;99.90
69204;DHT22;56317;27.658;85.326;2024-03-23T06:40:06;31.10;99.90
69204;DHT22;56317;27.658;85.326;2024-03-23T06:42:36;27.20;99.90
69204;DHT22;56317;27.658;85.326;2024-03-23T06:45:05;23.70;99.90
69204;DHT22;56317;27.658;85.326;2024-03-23T06:47:33;21.90;99.90
69204;DHT22;56317;27.658;85.326;2024-03-23T06:50:01;20.40;99.90
69204;DHT22;56317;27.658;85.326;2024-03-23T06:52:29;19.20;99.90
69204;DHT22;56317;27.658;85.326;2024-03-23T06:54:57;18.60;1.00
69204;DHT22;56317;27.658;85.326;2024-03-23T06:57:24;18.30;1.00
69204;DHT22;56317;27.658;85.326;2024-03-23T06:59:51;18.10;1.00
69204;DHT22;56317;27.658;85.326;2024-03-23T07:02:19;17.80;4.30
69204;DHT22;56317;27.658;85.326;2024-03-23T07:04:46;17.50;99.00
69204;DHT22;56317;27.658;85.326;2024-03-23T07:07:13;17.40;58.00
69204;DHT22;56317;27.658;85.326;2024-03-23T07:09:40;17.50;99.90
69204;DHT22;56317;27.658;85.326;2024-03-23T07:12:07;17.60;99.90
69204;DHT22;56317;27.658;85.326;2024-03-23T07:14:35;17.60;94.30
69204;DHT22;56317;27.658;85.326;2024-03-23T07:17:02;17.40;85.70
69204;DHT22;56317;27.658;85.326;2024-03-23T07:19:29;17.50;99.90
69204;DHT22;56317;27.658;85.326;2024-03-23T07:21:56;17.60;99.90
69204;DHT22;56317;27.658;85.326;2024-03-23T07:24:23;17.70;99.90
69204;DHT22;56317;27.658;85.326;2024-03-23T07:26:50;17.90;99.90
69204;DHT22;56317;27.658;85.326;2024-03-23T07:29:17;18.20;99.90
69204;DHT22;56317;27.658;85.326;2024-03-23T07:31:45;18.50;1.00
69204;DHT22;56317;27.658;85.326;2024-03-23T07:34:12;18.80;1.00
69204;DHT22;56317;27.658;85.326;2024-03-23T07:36:40;19.00;1.00
69204;DHT22;56317;27.658;85.326;2024-03-23T07:39:07;19.00;1.00
69204;DHT22;56317;27.658;85.326;2024-03-23T07:41:34;19.00;1.00
69204;DHT22;56317;27.658;85.326;2024-03-23T07:44:01;18.90;1.00
69204;DHT22;56317;27.658;85.326;2024-03-23T07:46:29;19.50;1.00
69204;DHT22;56317;27.658;85.326;2024-03-23T07:48:56;20.10;1.00
69204;DHT22;56317;27.658;85.326;2024-03-23T07:51:23;20.20;1.00
69204;DHT22;56317;27.658;85.326;2024-03-23T07:53:50;20.60;1.00
69204;DHT22;56317;27.658;85.326;2024-03-23T07:56:19;21.50;1.00
69204;DHT22;56317;27.658;85.326;2024-03-23T07:58:46;22.20;1.00
69204;DHT22;56317;27.658;85.326;2024-03-23T08:01:16;22.30;99.90
69204;DHT22;56317;27.658;85.326;2024-03-23T08:03:46;21.90;99.90
69204;DHT22;56317;27.658;85.326;2024-03-23T08:06:16;22.10;99.90
69204;DHT22;56317;27.658;85.326;2024-03-23T08:08:47;22.60;99.90
69204;DHT22;56317;27.658;85.326;2024-03-23T08:11:15;23.70;99.90
69204;DHT22;56317;27.658;85.326;2024-03-23T08:13:44;24.60;99.90
69204;DHT22;56317;27.658;85.326;2024-03-23T08:16:11;26.80;99.90
69204;DHT22;56317;27.658;85.326;2024-03-23T08:18:40;29.00;99.90
69204;DHT22;56317;27.658;85.326;2024-03-23T08:21:07;29.90;99.90
69204;DHT22;56317;27.658;85.326;2024-03-23T08:23:35;33.20;99.90
69204;DHT22;56317;27.658;85.326;2024-03-23T08:26:14;34.80;99.90
69204;DHT22;56317;27.658;85.326;2024-03-23T08:28:41;39.10;99.90
69204;DHT22;56317;27.658;85.326;2024-03-23T08:31:10;42.80;99.90
69204;DHT22;56317;27.658;85.326;2024-03-23T08:33:39;44.80;99.90
69204;DHT22;56317;27.658;85.326;2024-03-23T08:36:07;45.00;99.90
69204;DHT22;56317;27.658;85.326;2024-03-23T08:38:35;46.90;99.90
69204;DHT22;56317;27.658;85.326;2024-03-23T08:41:05;47.60;99.90
69204;DHT22;56317;27.658;85.326;2024-03-23T08:43:35;48.60;99.90
69204;DHT22;56317;27.658;85.326;2024-03-23T08:46:12;46.40;99.90
69204;DHT22;56317;27.658;85.326;2024-03-23T08:48:40;43.10;99.90
69204;DHT22;56317;27.658;85.326;2024-03-23T08:51:10;42.50;99.90
69204;DHT22;56317;27.658;85.326;2024-03-23T08:53:38;42.40;99.90
69204;DHT22;56317;27.658;85.326;2024-03-23T08:56:06;38.60;99.90
69204;DHT22;56317;27.658;85.326;2024-03-23T08:58:34;35.20;99.90
69204;DHT22;56317;27.658;85.326;2024-03-23T09:01:10;32.20;99.90
69204;DHT22;56317;27.658;85.326;2024-03-23T09:03:38;29.10;99.90
69204;DHT22;56317;27.658;85.326;2024-03-23T09:06:14;27.20;99.90
69204;DHT22;56317;27.658;85.326;2024-03-23T09:08:41;26.00;99.90
69204;DHT22;56317;27.658;85.326;2024-03-23T09:11:11;25.60;99.90
69204;DHT22;56317;27.658;85.326;2024-03-23T09:13:38;25.50;99.90
69204;DHT22;56317;27.658;85.326;2024-03-23T09:16:06;25.20;99.90
69204;DHT22;56317;27.658;85.326;2024-03-23T09:18:36;24.40;99.90
69204;DHT22;56317;27.658;85.326;2024-03-23T09:21:06;23.90;99.90
69204;DHT22;56317;27.658;85.326;2024-03-23T09:23:37;23.20;99.90
69204;DHT22;56317;27.658;85.326;2024-03-23T09:26:05;22.30;99.90
69204;DHT22;56317;27.658;85.326;2024-03-23T09:28:35;22.40;99.90
69204;DHT22;56317;27.658;85.326;2024-03-23T09:31:05;22.90;99.90
69204;DHT22;56317;27.658;85.326;2024-03-23T09:33:40;22.80;99.90
69204;DHT22;56317;27.658;85.326;2024-03-23T09:36:08;22.90;99.90
69204;DHT22;56317;27.658;85.326;2024-03-23T09:38:36;22.50;99.90
69204;DHT22;56317;27.658;85.326;2024-03-23T09:41:07;21.80;99.90
69204;DHT22;56317;27.658;85.326;2024-03-23T09:43:35;21.80;99.90
69204;DHT22;56317;27.658;85.326;2024-03-23T09:46:03;22.00;99.90
69204;DHT22;56317;27.658;85.326;2024-03-23T09:48:30;21.60;99.90
69204;DHT22;56317;27.658;85.326;2024-03-23T09:50:57;21.70;99.90
69204;DHT22;56317;27.658;85.326;2024-03-23T09:53:25;21.60;99.90
69204;DHT22;56317;27.658;85.326;2024-03-23T09:55:53;21.10;99.90
69204;DHT22;56317;27.658;85.326;2024-03-23T09:58:23;21.00;99.90
69204;DHT22;56317;27.658;85.326;2024-03-23T10:00:50;20.70;99.90
69204;DHT22;56317;27.658;85.326;2024-03-23T10:03:17;20.40;99.90
69204;DHT22;56317;27.658;85.326;2024-03-23T10:05:44;20.50;99.90
69204;DHT22;56317;27.658;85.326;2024-03-23T10:08:20;20.60;99.90
69204;DHT22;56317;27.658;85.326;2024-03-23T10:10:47;20.90;99.90
69204;DHT22;56317;27.658;85.326;2024-03-23T10:13:25;21.00;99.90
69204;DHT22;56317;27.658;85.326;2024-03-23T10:15:58;20.90;99.90
69204;DHT22;56317;27.658;85.326;2024-03-23T10:18:26;20.60;99.90
69204;DHT22;56317;27.658;85.326;2024-03-23T10:21:10;20.40;99.90
69204;DHT22;56317;27.658;85.326;2024-03-23T10:23:41;20.10;99.90
69204;DHT22;56317;27.658;85.326;2024-03-23T10:26:25;19.80;99.90
69204;DHT22;56317;27.658;85.326;2024-03-23T10:29:01;19.30;99.90
69204;DHT22;56317;27.658;85.326;2024-03-23T10:31:34;19.20;99.90
69204;DHT22;56317;27.658;85.326;2024-03-23T10:34:03;19.10;99.90
69204;DHT22;56317;27.658;85.326;2024-03-23T10:36:31;19.00;99.90
69204;DHT22;56317;27.658;85.326;2024-03-23T10:38:58;18.90;99.90
69204;DHT22;56317;27.658;85.326;2024-03-23T10:41:29;19.00;99.90
69204;DHT22;56317;27.658;85.326;2024-03-23T10:43:58;19.20;99.90
69204;DHT22;56317;27.658;85.326;2024-03-23T10:46:26;20.00;99.90
69204;DHT22;56317;27.658;85.326;2024-03-23T10:48:53;21.60;99.90
69204;DHT22;56317;27.658;85.326;2024-03-23T10:51:20;21.60;99.90
69204;DHT22;56317;27.658;85.326;2024-03-23T10:53:48;21.30;99.90
69204;DHT22;56317;27.658;85.326;2024-03-23T10:56:16;21.00;99.90
69204;DHT22;56317;27.658;85.326;2024-03-23T10:58:46;20.70;99.90
69204;DHT22;56317;27.658;85.326;2024-03-23T11:01:13;20.30;99.90
69204;DHT22;56317;27.658;85.326;2024-03-23T11:03:47;20.20;99.90
69204;DHT22;56317;27.658;85.326;2024-03-23T11:06:34;20.60;99.90
69204;DHT22;56317;27.658;85.326;2024-03-23T11:09:01;20.80;99.90
69204;DHT22;56317;27.658;85.326;2024-03-23T11:11:29;21.20;99.90
69204;DHT22;56317;27.658;85.326;2024-03-23T11:13:58;21.00;99.90
69204;DHT22;56317;27.658;85.326;2024-03-23T11:16:27;20.70;99.90
69204;DHT22;56317;27.658;85.326;2024-03-23T11:19:34;20.10;99.90
69204;DHT22;56317;27.658;85.326;2024-03-23T11:22:05;19.70;99.90
69204;DHT22;56317;27.658;85.326;2024-03-23T11:24:34;19.60;99.90
69204;DHT22;56317;27.658;85.326;2024-03-23T11:27:01;19.40;99.90
69204;DHT22;56317;27.658;85.326;2024-03-23T11:29:30;19.30;99.90
69204;DHT22;56317;27.658;85.326;2024-03-23T11:31:57;19.20;99.90
69204;DHT22;56317;27.658;85.326;2024-03-23T11:34:25;18.90;99.90
69204;DHT22;56317;27.658;85.326;2024-03-23T11:37:04;18.90;99.90
69204;DHT22;56317;27.658;85.326;2024-03-23T11:39:32;18.80;99.90
69204;DHT22;56317;27.658;85.326;2024-03-23T11:41:59;18.90;99.90
69204;DHT22;56317;27.658;85.326;2024-03-23T11:44:27;18.90;99.90
69204;DHT22;56317;27.658;85.326;2024-03-23T11:46:54;19.00;99.90
69204;DHT22;56317;27.658;85.326;2024-03-23T11:49:33;18.90;1.00
69204;DHT22;56317;27.658;85.326;2024-03-23T11:52:07;18.70;1.00
69204;DHT22;56317;27.658;85.326;2024-03-23T11:54:34;18.50;1.00
69204;DHT22;56317;27.658;85.326;2024-03-23T11:57:09;18.40;1.00
69204;DHT22;56317;27.658;85.326;2024-03-23T11:59:40;18.20;1.00
69204;DHT22;56317;27.658;85.326;2024-03-23T12:02:09;18.10;1.00
69204;DHT22;56317;27.658;85.326;2024-03-23T12:04:38;17.90;7.90
69204;DHT22;56317;27.658;85.326;2024-03-23T12:07:19;17.80;99.90
69204;DHT22;56317;27.658;85.326;2024-03-23T12:10:06;17.60;99.90
69204;DHT22;56317;27.658;85.326;2024-03-23T12:12:33;17.50;99.90
69204;DHT22;56317;27.658;85.326;2024-03-23T12:15:04;17.40;1.00
69204;DHT22;56317;27.658;85.326;2024-03-23T12:17:32;17.10;99.90
69204;DHT22;56317;27.658;85.326;2024-03-23T12:20:01;17.00;1.00
69204;DHT22;56317;27.658;85.326;2024-03-23T12:22:29;16.90;99.90
69204;DHT22;56317;27.658;85.326;2024-03-23T12:25:00;16.80;99.90
69204;DHT22;56317;27.658;85.326;2024-03-23T12:27:28;16.70;99.90
69204;DHT22;56317;27.658;85.326;2024-03-23T12:29:55;16.60;99.90
69204;DHT22;56317;27.658;85.326;2024-03-23T12:32:22;16.50;1.00
69204;DHT22;56317;27.658;85.326;2024-03-23T12:34:49;16.40;25.50
69204;DHT22;56317;27.658;85.326;2024-03-23T12:37:16;16.40;1.00
69204;DHT22;56317;27.658;85.326;2024-03-23T12:39:44;16.30;99.90
69204;DHT22;56317;27.658;85.326;2024-03-23T12:42:12;16.30;69.50
69204;DHT22;56317;27.658;85.326;2024-03-23T12:44:39;16.20;1.00
69204;DHT22;56317;27.658;85.326;2024-03-23T12:47:06;16.20;99.90
69204;DHT22;56317;27.658;85.326;2024-03-23T12:49:33;16.10;99.90
69204;DHT22;56317;27.658;85.326;2024-03-23T12:52:00;16.10;1.00
69204;DHT22;56317;27.658;85.326;2024-03-23T12:54:28;16.00;99.90
69204;DHT22;56317;27.658;85.326;2024-03-23T12:56:56;16.00;1.00
69204;DHT22;56317;27.658;85.326;2024-03-23T12:59:23;15.90;1.00
69204;DHT22;56317;27.658;85.326;2024-03-23T13:01:50;15.90;99.90
69204;DHT22;56317;27.658;85.326;2024-03-23T13:04:17;15.90;99.90
69204;DHT22;56317;27.658;85.326;2024-03-23T13:06:44;16.00;99.90
69204;DHT22;56317;27.658;85.326;2024-03-23T13:09:11;16.00;1.00
69204;DHT22;56317;27.658;85.326;2024-03-23T13:11:38;15.90;1.00
69204;DHT22;56317;27.658;85.326;2024-03-23T13:14:05;15.90;99.90
69204;DHT22;56317;27.658;85.326;2024-03-23T13:16:32;16.00;99.90
69204;DHT22;56317;27.658;85.326;2024-03-23T13:19:00;16.00;1.00
69204;DHT22;56317;27.658;85.326;2024-03-23T13:21:27;16.00;1.00
69204;DHT22;56317;27.658;85.326;2024-03-23T13:23:54;16.00;1.00
69204;DHT22;56317;27.658;85.326;2024-03-23T13:26:22;16.00;46.30
69204;DHT22;56317;27.658;85.326;2024-03-23T13:28:49;16.00;99.90
69204;DHT22;56317;27.658;85.326;2024-03-23T13:31:16;16.10;99.90
69204;DHT22;56317;27.658;85.326;2024-03-23T13:33:43;16.10;91.60
69204;DHT22;56317;27.658;85.326;2024-03-23T13:36:10;16.10;1.00
69204;DHT22;56317;27.658;85.326;2024-03-23T13:38:37;16.10;1.00
69204;DHT22;56317;27.658;85.326;2024-03-23T13:41:05;16.10;66.10
69204;DHT22;56317;27.658;85.326;2024-03-23T13:43:33;16.10;98.00
69204;DHT22;56317;27.658;85.326;2024-03-23T13:46:00;16.10;1.00
69204;DHT22;56317;27.658;85.326;2024-03-23T13:48:28;16.10;99.90
69204;DHT22;56317;27.658;85.326;2024-03-23T13:51:04;16.20;99.90
69204;DHT22;56317;27.658;85.326;2024-03-23T13:53:32;16.20;20.60
69204;DHT22;56317;27.658;85.326;2024-03-23T13:55:59;16.20;99.90
69204;DHT22;56317;27.658;85.326;2024-03-23T13:58:26;16.20;99.90
69204;DHT22;56317;27.658;85.326;2024-03-23T14:00:55;16.20;1.00
69204;DHT22;56317;27.658;85.326;2024-03-23T14:03:24;16.20;1.00
69204;DHT22;56317;27.658;85.326;2024-03-23T14:05:51;16.20;1.00
69204;DHT22;56317;27.658;85.326;2024-03-23T14:08:19;16.20;99.90
69204;DHT22;56317;27.658;85.326;2024-03-23T14:10:48;16.20;99.90
69204;DHT22;56317;27.658;85.326;2024-03-23T14:13:15;16.10;1.00
69204;DHT22;56317;27.658;85.326;2024-03-23T14:15:42;16.20;1.00
69204;DHT22;56317;27.658;85.326;2024-03-23T14:18:09;16.10;46.30
69204;DHT22;56317;27.658;85.326;2024-03-23T14:20:36;16.10;99.90
69204;DHT22;56317;27.658;85.326;2024-03-23T14:23:03;16.10;99.90
69204;DHT22;56317;27.658;85.326;2024-03-23T14:25:31;16.10;99.90
69204;DHT22;56317;27.658;85.326;2024-03-23T14:27:58;16.10;99.90
69204;DHT22;56317;27.658;85.326;2024-03-23T14:30:25;16.00;1.00
69204;DHT22;56317;27.658;85.326;2024-03-23T14:32:52;16.10;68.10
69204;DHT22;56317;27.658;85.326;2024-03-23T14:35:19;16.10;34.80
69204;DHT22;56317;27.658;85.326;2024-03-23T14:37:46;16.10;1.00
69204;DHT22;56317;27.658;85.326;2024-03-23T14:40:13;16.00;1.00
69204;DHT22;56317;27.658;85.326;2024-03-23T14:42:40;16.00;1.00
69204;DHT22;56317;27.658;85.326;2024-03-23T14:45:08;16.00;1.00
69204;DHT22;56317;27.658;85.326;2024-03-23T14:47:35;15.90;99.90
69204;DHT22;56317;27.658;85.326;2024-03-23T14:50:03;15.90;99.90
69204;DHT22;56317;27.658;85.326;2024-03-23T14:52:31;15.80;99.90
69204;DHT22;56317;27.658;85.326;2024-03-23T14:54:58;15.80;99.90
69204;DHT22;56317;27.658;85.326;2024-03-23T14:57:25;15.80;99.90
69204;DHT22;56317;27.658;85.326;2024-03-23T14:59:55;15.60;99.90
69204;DHT22;56317;27.658;85.326;2024-03-23T15:02:22;15.60;1.00
69204;DHT22;56317;27.658;85.326;2024-03-23T15:04:50;15.60;1.00
69204;DHT22;56317;27.658;85.326;2024-03-23T15:07:17;15.50;1.00
69204;DHT22;56317;27.658;85.326;2024-03-23T15:09:44;15.50;1.00
69204;DHT22;56317;27.658;85.326;2024-03-23T15:12:13;15.50;1.00
69204;DHT22;56317;27.658;85.326;2024-03-23T15:14:40;15.40;1.00
69204;DHT22;56317;27.658;85.326;2024-03-23T15:17:07;15.40;1.00
69204;DHT22;56317;27.658;85.326;2024-03-23T15:19:35;15.40;1.00
69204;DHT22;56317;27.658;85.326;2024-03-23T15:22:02;15.40;1.00
69204;DHT22;56317;27.658;85.326;2024-03-23T15:24:30;15.40;1.00
69204;DHT22;56317;27.658;85.326;2024-03-23T15:26:58;15.30;1.00
69204;DHT22;56317;27.658;85.326;2024-03-23T15:29:25;15.30;1.00
69204;DHT22;56317;27.658;85.326;2024-03-23T15:31:52;15.30;1.00
69204;DHT22;56317;27.658;85.326;2024-03-23T15:34:20;15.30;1.00
69204;DHT22;56317;27.658;85.326;2024-03-23T15:36:50;15.40;1.00
69204;DHT22;56317;27.658;85.326;2024-03-23T15:39:18;15.40;1.00
69204;DHT22;56317;27.658;85.326;2024-03-23T15:41:48;15.40;1.00
69204;DHT22;56317;27.658;85.326;2024-03-23T15:44:15;15.30;1.00
69204;DHT22;56317;27.658;85.326;2024-03-23T15:46:42;15.40;1.00
69204;DHT22;56317;27.658;85.326;2024-03-23T15:49:09;15.30;1.00
69204;DHT22;56317;27.658;85.326;2024-03-23T15:51:36;15.30;1.00
69204;DHT22;56317;27.658;85.326;2024-03-23T15:54:06;15.30;1.00
69204;DHT22;56317;27.658;85.326;2024-03-23T15:56:33;15.30;1.00
69204;DHT22;56317;27.658;85.326;2024-03-23T15:59:00;15.30;99.90
69204;DHT22;56317;27.658;85.326;2024-03-23T16:01:33;15.40;1.00
69204;DHT22;56317;27.658;85.326;2024-03-23T16:04:04;15.40;1.00
69204;DHT22;56317;27.658;85.326;2024-03-23T16:06:31;15.40;1.00
69204;DHT22;56317;27.658;85.326;2024-03-23T16:08:58;15.40;1.00
69204;DHT22;56317;27.658;85.326;2024-03-23T16:11:25;15.40;1.00
69204;DHT22;56317;27.658;85.326;2024-03-23T16:13:52;15.40;1.00
69204;DHT22;56317;27.658;85.326;2024-03-23T16:16:20;15.40;1.00
69204;DHT22;56317;27.658;85.326;2024-03-23T16:18:48;15.40;1.00
69204;DHT22;56317;27.658;85.326;2024-03-23T16:21:16;15.50;99.90
69204;DHT22;56317;27.658;85.326;2024-03-23T16:23:44;15.40;1.00